createdAt,value
2016-11-27T10:18:30.467Z,540
2016-11-27T10:19:30.472Z,468
2016-11-27T10:20:30.475Z,516
2016-11-27T10:21:30.485Z,524
2016-11-27T10:22:30.492Z,724
2016-11-27T10:23:30.423Z,600
2016-11-27T10:24:30.511Z,640
2016-11-27T10:25:30.459Z,688
2016-11-27T10:26:30.454Z,688
2016-11-27T10:27:30.464Z,464
2016-11-27T10:28:30.472Z,540
2016-11-27T10:29:30.478Z,440
2016-11-27T10:30:30.478Z,612
2016-11-27T10:31:30.489Z,584
2016-11-27T10:32:30.520Z,620
2016-11-27T10:33:30.537Z,704
2016-11-27T10:34:30.628Z,792
2016-11-27T10:35:30.538Z,728
2016-11-27T10:36:30.550Z,1004
2016-11-27T10:37:30.497Z,800
2016-11-27T10:38:30.504Z,636
2016-11-27T10:39:30.513Z,868
2016-11-27T10:40:30.526Z,800
2016-11-27T10:41:30.540Z,800
2016-11-27T10:42:30.550Z,464
2016-11-27T10:43:30.591Z,364
2016-11-27T10:44:30.580Z,404
2016-11-27T10:45:30.599Z,660
2016-11-27T10:46:30.609Z,564
2016-11-27T10:47:30.624Z,536
2016-11-27T10:48:30.634Z,564
2016-11-27T10:49:30.639Z,652
2016-11-27T10:50:30.667Z,704
2016-11-27T10:51:30.673Z,992
2016-11-27T10:52:30.684Z,1304
2016-11-27T10:53:30.705Z,1152
2016-11-27T10:54:30.716Z,844
2016-11-27T10:55:30.728Z,808
2016-11-27T10:56:30.746Z,680
2016-11-27T10:57:30.761Z,608
2016-11-27T10:58:30.768Z,568
2016-11-27T10:59:30.790Z,436
2016-11-27T11:00:30.800Z,452
2016-11-27T11:01:30.820Z,704
2016-11-27T11:02:30.827Z,700
2016-11-27T11:03:30.850Z,412
2016-11-27T11:04:30.861Z,372
2016-11-27T11:05:30.877Z,452
2016-11-27T11:06:30.894Z,508
2016-11-27T11:07:30.900Z,516
2016-11-27T11:08:30.918Z,508
2016-11-27T11:09:30.938Z,416
2016-11-27T11:10:30.982Z,440
2016-11-27T11:11:30.989Z,360
2016-11-27T11:12:30.978Z,336
2016-11-27T11:13:30.992Z,328
2016-11-27T11:14:31.009Z,376
2016-11-27T11:15:31.023Z,628
2016-11-27T11:16:31.036Z,784
2016-11-27T11:17:31.055Z,616
2016-11-27T11:18:31.062Z,976
2016-11-27T11:19:31.077Z,1244
2016-11-27T11:20:31.094Z,1088
2016-11-27T11:21:31.106Z,928
2016-11-27T11:22:31.130Z,852
2016-11-27T11:23:31.139Z,940
2016-11-27T11:24:31.154Z,1600
2016-11-27T11:25:31.171Z,1036
2016-11-27T11:26:31.184Z,900
2016-11-27T11:27:31.202Z,1032
2016-11-27T11:28:31.215Z,1144
2016-11-27T11:29:31.226Z,1100
2016-11-27T11:30:31.562Z,1108
2016-11-27T11:31:31.576Z,888
2016-11-27T11:32:31.277Z,876
2016-11-27T11:33:31.290Z,836
2016-11-27T11:34:31.311Z,580
2016-11-27T11:35:31.318Z,704
2016-11-27T11:36:31.339Z,596
2016-11-27T11:37:31.350Z,676
2016-11-27T11:38:31.370Z,608
2016-11-27T11:39:31.383Z,696
2016-11-27T11:40:31.398Z,700
2016-11-27T11:41:31.409Z,968
2016-11-27T11:42:31.627Z,764
2016-11-27T11:43:31.446Z,648
2016-11-27T11:44:31.457Z,640
2016-11-27T11:45:31.475Z,576
2016-11-27T11:46:31.486Z,616
2016-11-27T11:47:31.506Z,1088
2016-11-27T11:48:31.548Z,712
2016-11-27T11:49:31.540Z,1016
2016-11-27T11:50:31.556Z,972
2016-11-27T11:51:31.570Z,832
2016-11-27T11:52:31.588Z,1236
2016-11-27T11:53:31.597Z,1180
2016-11-27T11:54:31.617Z,872
2016-11-27T11:55:31.628Z,708
2016-11-27T11:56:31.679Z,1388
2016-11-27T11:57:31.692Z,952
2016-11-27T11:58:31.684Z,764
2016-11-27T11:59:31.697Z,1040
2016-11-27T12:00:31.712Z,640
2016-11-27T12:01:31.752Z,608
2016-11-27T12:02:31.746Z,808
2016-11-27T12:03:31.763Z,920
2016-11-27T12:04:31.775Z,612
2016-11-27T12:05:31.786Z,1016
2016-11-27T12:06:31.805Z,696
2016-11-27T12:07:31.819Z,500
2016-11-27T12:08:31.841Z,920
2016-11-27T12:09:31.852Z,644
2016-11-27T12:10:31.869Z,576
2016-11-27T12:11:31.889Z,336
2016-11-27T12:12:31.905Z,280
2016-11-27T12:13:31.920Z,316
2016-11-27T12:14:31.948Z,320
2016-11-27T12:15:31.949Z,332
2016-11-27T12:16:31.970Z,316
2016-11-27T12:17:31.981Z,352
2016-11-27T12:18:32.119Z,348
2016-11-27T12:19:32.147Z,364
2016-11-27T12:20:32.121Z,396
2016-11-27T12:21:32.281Z,352
2016-11-27T12:22:32.290Z,396
2016-11-27T12:23:32.325Z,800
2016-11-27T12:24:32.312Z,608
2016-11-27T12:25:32.342Z,432
2016-11-27T12:26:32.322Z,724
2016-11-27T12:27:32.334Z,784
2016-11-27T12:28:32.337Z,532
2016-11-27T12:29:32.345Z,628
2016-11-27T12:30:32.352Z,772
2016-11-27T12:31:32.431Z,768
2016-11-27T12:32:32.411Z,1152
2016-11-27T12:33:32.414Z,1032
2016-11-27T12:34:32.426Z,620
2016-11-27T12:35:32.426Z,708
2016-11-27T12:36:32.447Z,728
2016-11-27T12:37:32.439Z,816
2016-11-27T12:38:32.451Z,936
2016-11-27T12:39:32.463Z,880
2016-11-27T12:40:32.477Z,496
2016-11-27T12:41:32.463Z,1080
2016-11-27T12:42:32.468Z,868
2016-11-27T12:43:32.443Z,576
2016-11-27T12:44:32.455Z,720
2016-11-27T12:45:32.466Z,564
2016-11-27T12:46:32.457Z,368
2016-11-27T12:47:32.465Z,384
2016-11-27T12:48:32.481Z,432
2016-11-27T12:49:32.517Z,684
2016-11-27T12:50:32.519Z,544
2016-11-27T12:51:32.567Z,420
2016-11-27T12:52:32.596Z,468
2016-11-27T12:53:32.569Z,324
2016-11-27T12:54:32.580Z,360
2016-11-27T12:55:32.624Z,472
2016-11-27T12:56:32.646Z,472
2016-11-27T12:57:32.624Z,412
2016-11-27T12:58:32.643Z,380
2016-11-27T12:59:32.687Z,348
2016-11-27T13:00:32.682Z,324
2016-11-27T13:01:32.693Z,348
2016-11-27T13:02:32.743Z,372
2016-11-27T13:03:32.732Z,404
2016-11-27T13:04:32.749Z,512
2016-11-27T13:05:32.750Z,444
2016-11-27T13:06:32.776Z,392
2016-11-27T13:07:32.792Z,344
2016-11-27T13:08:32.811Z,364
2016-11-27T13:09:32.824Z,292
2016-11-27T13:10:32.843Z,260
2016-11-27T13:11:32.857Z,260
2016-11-27T13:12:32.869Z,292
2016-11-27T13:13:32.888Z,312
2016-11-27T13:14:32.924Z,352
2016-11-27T13:15:32.914Z,432
2016-11-27T13:16:32.930Z,396
2016-11-27T13:17:32.957Z,324
2016-11-27T13:18:32.970Z,356
2016-11-27T13:19:32.986Z,364
2016-11-27T13:20:33.001Z,348
2016-11-27T13:21:33.016Z,336
2016-11-27T13:22:33.038Z,296
2016-11-27T13:23:33.051Z,308
2016-11-27T13:24:33.066Z,296
2016-11-27T13:25:33.103Z,300
2016-11-27T13:26:33.099Z,280
2016-11-27T13:27:33.129Z,276
2016-11-27T13:28:33.146Z,272
2016-11-27T13:29:33.152Z,272
2016-11-27T13:30:33.166Z,280
2016-11-27T13:31:33.198Z,288
2016-11-27T13:32:33.201Z,276
2016-11-27T13:33:33.214Z,276
2016-11-27T13:34:33.234Z,276
2016-11-27T13:35:33.257Z,260
2016-11-27T13:36:33.266Z,252
2016-11-27T13:37:33.280Z,244
2016-11-27T13:38:33.339Z,240
2016-11-27T13:39:33.320Z,232
2016-11-27T13:40:33.332Z,244
2016-11-27T13:41:33.342Z,280
2016-11-27T13:42:33.371Z,240
2016-11-27T13:43:33.486Z,232
2016-11-27T13:44:33.396Z,240
2016-11-27T13:45:33.414Z,268
2016-11-27T13:46:33.425Z,228
2016-11-27T13:47:34.081Z,232
2016-11-27T13:48:33.459Z,236
2016-11-27T13:49:33.474Z,240
2016-11-27T13:50:33.500Z,236
2016-11-27T13:51:33.513Z,228
2016-11-27T13:52:33.523Z,232
2016-11-27T13:53:33.543Z,280
2016-11-27T13:54:33.557Z,240
2016-11-27T13:55:33.580Z,232
2016-11-27T13:56:33.594Z,232
2016-11-27T13:57:33.617Z,232
2016-11-27T13:58:33.622Z,232
2016-11-27T13:59:33.640Z,224
2016-11-27T14:00:33.662Z,224
2016-11-27T14:01:33.673Z,224
2016-11-27T14:02:33.725Z,220
2016-11-27T14:03:33.705Z,216
2016-11-27T14:04:33.751Z,212
2016-11-27T14:05:33.753Z,204
2016-11-27T14:06:33.761Z,200
2016-11-27T14:07:33.769Z,196
2016-11-27T14:08:33.799Z,200
2016-11-27T14:09:33.805Z,196
2016-11-27T14:10:33.828Z,192
2016-11-27T14:11:33.834Z,188
2016-11-27T14:12:33.855Z,188
2016-11-27T14:13:33.865Z,180
2016-11-27T14:14:33.880Z,176
2016-11-27T14:15:33.900Z,172
2016-11-27T14:16:33.916Z,172
2016-11-27T14:17:33.934Z,168
2016-11-27T14:18:33.945Z,164
2016-11-27T14:19:33.965Z,164
2016-11-27T14:20:34.095Z,164
2016-11-27T14:21:34.106Z,160
2016-11-27T14:22:34.114Z,160
2016-11-27T14:23:34.119Z,180
2016-11-27T14:24:34.249Z,184
2016-11-27T14:25:34.264Z,172
2016-11-27T14:26:34.572Z,156
2016-11-27T14:27:34.276Z,140
2016-11-27T14:28:34.414Z,132
2016-11-27T14:29:34.289Z,132
2016-11-27T14:30:34.303Z,124
2016-11-27T14:31:34.308Z,124
2016-11-27T14:32:34.310Z,120
2016-11-27T14:33:34.839Z,116
2016-11-27T14:34:34.350Z,112
2016-11-27T14:35:34.335Z,108
2016-11-27T14:36:34.340Z,108
2016-11-27T14:37:34.380Z,100
2016-11-27T14:38:34.452Z,100
2016-11-27T14:39:34.395Z,92
2016-11-27T14:40:34.410Z,88
2016-11-27T14:41:34.409Z,88
2016-11-27T14:42:34.415Z,92
2016-11-27T14:43:34.494Z,84
2016-11-27T14:44:34.436Z,80
2016-11-27T14:45:34.478Z,80
2016-11-27T14:46:34.480Z,72
2016-11-27T14:47:34.485Z,72
2016-11-27T14:48:34.538Z,68
2016-11-27T14:49:34.439Z,64
2016-11-27T14:50:34.455Z,60
2016-11-27T14:51:34.473Z,60
2016-11-27T14:52:34.485Z,56
2016-11-27T14:53:34.505Z,52
2016-11-27T14:54:34.517Z,52
2016-11-27T14:55:34.533Z,48
2016-11-27T14:56:34.576Z,44
2016-11-27T14:57:34.565Z,44
2016-11-27T14:58:34.579Z,40
2016-11-27T14:59:34.599Z,40
2016-11-27T15:00:34.609Z,36
2016-11-27T15:01:34.628Z,36
2016-11-27T15:02:34.639Z,32
2016-11-27T15:03:34.658Z,28
2016-11-27T15:04:34.673Z,28
2016-11-27T15:05:34.692Z,24
2016-11-27T15:06:34.703Z,24
2016-11-27T15:07:34.721Z,20
2016-11-27T15:08:34.745Z,20
2016-11-27T15:09:34.755Z,20
2016-11-27T15:10:34.777Z,20
2016-11-27T15:11:34.788Z,16
2016-11-27T15:12:34.796Z,16
2016-11-27T15:13:34.814Z,12
2016-11-27T15:14:34.837Z,16
2016-11-27T15:15:34.847Z,12
2016-11-27T15:16:34.871Z,8
2016-11-27T15:17:34.884Z,12
2016-11-27T15:18:34.896Z,8
2016-11-27T15:19:34.913Z,8
2016-11-27T15:20:34.924Z,8
2016-11-27T15:21:34.941Z,4
2016-11-27T15:22:34.956Z,8
2016-11-27T15:23:34.977Z,4
2016-11-27T15:24:34.988Z,4
2016-11-27T15:25:35.001Z,4
2016-11-27T15:26:35.020Z,0
2016-11-27T15:27:35.034Z,4
2016-11-27T15:28:35.047Z,4
2016-11-27T15:29:35.105Z,4
2016-11-27T15:30:35.083Z,0
2016-11-27T15:31:35.095Z,0
2016-11-27T15:32:35.111Z,0
2016-11-27T15:33:35.160Z,0
2016-11-27T15:34:35.195Z,0
2016-11-27T15:35:35.167Z,0
2016-11-27T15:36:35.175Z,0
2016-11-27T15:37:35.220Z,0
2016-11-27T15:38:35.207Z,0
2016-11-27T15:39:35.223Z,0
2016-11-27T15:40:35.238Z,0
2016-11-27T15:41:35.254Z,0
2016-11-27T15:42:35.269Z,0
2016-11-27T15:43:35.312Z,0
2016-11-27T15:44:35.298Z,0
2016-11-27T15:45:35.314Z,0
2016-11-27T15:46:35.336Z,0
2016-11-27T15:47:35.346Z,0
2016-11-27T15:48:35.359Z,0
2016-11-27T15:49:35.378Z,0
2016-11-27T15:50:35.391Z,0
2016-11-27T15:51:35.410Z,0
2016-11-27T15:52:35.416Z,0
2016-11-27T15:53:35.446Z,0
2016-11-27T15:54:35.462Z,0
2016-11-27T15:55:35.473Z,0
2016-11-27T15:56:35.481Z,0
2016-11-27T15:57:35.499Z,0
2016-11-27T15:58:35.549Z,0
2016-11-27T15:59:35.535Z,0
2016-11-27T16:00:35.543Z,0
2016-11-27T16:01:35.575Z,0
2016-11-27T16:02:35.572Z,0
2016-11-27T16:03:35.587Z,0
2016-11-27T16:04:35.605Z,0
2016-11-27T16:05:35.629Z,0
2016-11-27T16:06:35.637Z,0
2016-11-27T16:07:35.649Z,0
2016-11-27T16:08:35.666Z,0
2016-11-27T16:09:35.675Z,0
2016-11-27T16:10:35.697Z,0
2016-11-27T16:11:35.717Z,0
2016-11-27T16:12:35.728Z,0
2016-11-27T16:13:35.745Z,0
2016-11-27T16:14:35.786Z,0
2016-11-27T16:15:35.774Z,0
2016-11-27T16:16:35.787Z,0
2016-11-27T16:17:35.801Z,0
2016-11-27T16:18:35.819Z,0
2016-11-27T16:19:35.830Z,0
2016-11-27T16:20:35.848Z,0
2016-11-27T16:21:35.861Z,0
2016-11-27T16:22:35.878Z,0
2016-11-27T16:23:35.887Z,0
2016-11-27T16:24:35.905Z,0
2016-11-27T16:25:35.919Z,0
2016-11-27T16:26:35.937Z,0
2016-11-27T16:27:35.956Z,0
2016-11-27T16:28:35.970Z,0
2016-11-27T16:29:35.980Z,0
2016-11-27T16:30:35.996Z,0
2016-11-27T16:31:36.012Z,0
2016-11-27T16:32:36.029Z,0
2016-11-27T16:33:36.034Z,0
2016-11-27T16:34:36.056Z,0
2016-11-27T16:35:36.075Z,0
2016-11-27T16:36:36.080Z,0
2016-11-27T16:37:36.097Z,0
2016-11-27T16:38:36.118Z,0
2016-11-27T16:39:36.140Z,0
2016-11-27T16:40:36.146Z,0
2016-11-27T16:41:36.157Z,0
2016-11-27T16:42:36.171Z,0
2016-11-27T16:43:36.197Z,0
2016-11-27T16:44:36.209Z,0
2016-11-27T16:45:36.234Z,0
2016-11-27T16:46:36.235Z,0
2016-11-27T16:47:36.253Z,0
2016-11-27T16:48:36.262Z,0
2016-11-27T16:49:36.304Z,0
2016-11-27T16:50:36.294Z,0
2016-11-27T16:51:36.303Z,0
2016-11-27T16:52:36.326Z,0
2016-11-27T16:53:36.335Z,0
2016-11-27T16:54:36.351Z,0
2016-11-27T16:55:36.367Z,0
2016-11-27T16:56:36.394Z,0
2016-11-27T16:57:36.400Z,0
2016-11-27T16:58:36.418Z,0
2016-11-27T16:59:36.425Z,0
2016-11-27T17:00:36.444Z,0
2016-11-27T17:01:36.455Z,0
2016-11-27T17:02:36.474Z,0
2016-11-27T17:03:36.490Z,0
2016-11-27T17:04:36.508Z,0
2016-11-27T17:05:36.534Z,0
2016-11-27T17:06:36.534Z,0
2016-11-27T17:07:36.545Z,0
2016-11-27T17:08:36.560Z,0
2016-11-27T17:09:36.593Z,0
2016-11-27T17:10:36.591Z,0
2016-11-27T17:11:36.601Z,0
2016-11-27T17:12:36.634Z,0
2016-11-27T17:13:36.628Z,0
2016-11-27T17:14:36.648Z,0
2016-11-27T17:15:36.671Z,0
2016-11-27T17:16:36.682Z,0
2016-11-27T17:17:36.684Z,0
2016-11-27T17:18:36.705Z,0
2016-11-27T17:19:36.733Z,0
2016-11-27T17:20:36.739Z,0
2016-11-27T17:21:36.746Z,0
2016-11-27T17:22:36.765Z,0
2016-11-27T17:23:36.784Z,0
2016-11-27T17:24:36.795Z,0
2016-11-27T17:25:36.806Z,0
2016-11-27T17:26:36.820Z,0
2016-11-27T17:27:36.843Z,0
2016-11-27T17:28:36.853Z,0
2016-11-27T17:29:36.858Z,0
2016-11-27T17:30:36.882Z,0
2016-11-27T17:31:36.897Z,0
2016-11-27T17:32:36.910Z,0
2016-11-27T17:33:36.918Z,0
2016-11-27T17:34:36.941Z,0
2016-11-27T17:35:36.954Z,0
2016-11-27T17:36:36.965Z,0
2016-11-27T17:37:36.979Z,0
2016-11-27T17:38:36.991Z,0
2016-11-27T17:39:37.015Z,0
2016-11-27T17:40:37.051Z,0
2016-11-27T17:41:37.047Z,0
2016-11-27T17:42:37.048Z,0
2016-11-27T17:43:37.068Z,0
2016-11-27T17:44:37.077Z,0
2016-11-27T17:45:37.091Z,0
2016-11-27T17:46:37.113Z,0
2016-11-27T17:47:37.119Z,0
2016-11-27T17:48:37.145Z,0
2016-11-27T17:49:37.152Z,0
2016-11-27T17:50:37.172Z,0
2016-11-27T17:51:37.178Z,0
2016-11-27T17:52:37.200Z,0
2016-11-27T17:53:37.207Z,0
2016-11-27T17:54:37.226Z,0
2016-11-27T17:55:37.239Z,0
2016-11-27T17:56:37.255Z,0
2016-11-27T17:57:37.266Z,0
2016-11-27T17:58:37.286Z,0
2016-11-27T17:59:37.297Z,0
2016-11-27T18:00:37.310Z,0
2016-11-27T18:01:37.324Z,0
2016-11-27T18:02:37.344Z,0
2016-11-27T18:03:37.351Z,0
2016-11-27T18:04:37.369Z,0
2016-11-27T18:05:37.378Z,0
2016-11-27T18:06:37.464Z,0
2016-11-27T18:07:37.469Z,0
2016-11-27T18:08:37.468Z,0
2016-11-27T18:09:37.476Z,0
2016-11-27T18:10:37.486Z,0
2016-11-27T18:11:37.498Z,0
2016-11-27T18:12:37.503Z,0
2016-11-27T18:13:37.502Z,0
2016-11-27T18:14:37.513Z,0
2016-11-27T18:15:37.521Z,0
2016-11-27T18:16:37.536Z,0
2016-11-27T18:17:37.548Z,0
2016-11-27T18:18:37.704Z,0
2016-11-27T18:19:37.604Z,0
2016-11-27T18:20:37.613Z,0
2016-11-27T18:21:37.623Z,0
2016-11-27T18:22:37.629Z,0
2016-11-27T18:23:37.640Z,0
2016-11-27T18:24:37.744Z,0
2016-11-27T18:25:37.767Z,0
2016-11-27T18:26:37.774Z,0
2016-11-27T18:27:37.781Z,0
2016-11-27T18:28:37.780Z,0
2016-11-27T18:29:37.791Z,0
2016-11-27T18:30:37.821Z,0
2016-11-27T18:31:37.747Z,0
2016-11-27T18:32:37.763Z,0
2016-11-27T18:33:37.776Z,0
2016-11-27T18:34:37.790Z,0
2016-11-27T18:35:37.816Z,0
2016-11-27T18:36:37.815Z,0
2016-11-27T18:37:37.831Z,0
2016-11-27T18:38:37.849Z,0
2016-11-27T18:39:37.879Z,0
2016-11-27T18:40:37.874Z,0
2016-11-27T18:41:37.895Z,0
2016-11-27T18:42:37.907Z,0
2016-11-27T18:43:37.912Z,0
2016-11-27T18:44:37.928Z,0
2016-11-27T18:45:37.940Z,0
2016-11-27T18:46:37.958Z,0
2016-11-27T18:47:37.972Z,0
2016-11-27T18:48:37.988Z,0
2016-11-27T18:49:37.996Z,0
2016-11-27T18:50:38.016Z,0
2016-11-27T18:51:38.026Z,0
2016-11-27T18:52:38.043Z,0
2016-11-27T18:53:38.050Z,0
2016-11-27T18:54:38.071Z,0
2016-11-27T18:55:38.083Z,0
2016-11-27T18:56:38.099Z,0
2016-11-27T18:57:38.116Z,0
2016-11-27T18:58:38.131Z,0
2016-11-27T18:59:38.146Z,0
2016-11-27T19:00:38.166Z,0
2016-11-27T19:01:38.177Z,0
2016-11-27T19:02:38.183Z,0
2016-11-27T19:03:38.220Z,0
2016-11-27T19:04:38.215Z,0
2016-11-27T19:05:38.225Z,0
2016-11-27T19:06:38.237Z,0
2016-11-27T19:07:38.273Z,0
2016-11-27T19:08:38.268Z,0
2016-11-27T19:09:38.276Z,0
2016-11-27T19:10:38.291Z,0
2016-11-27T19:11:38.301Z,0
2016-11-27T19:12:38.336Z,0
2016-11-27T19:13:38.333Z,0
2016-11-27T19:14:38.344Z,0
2016-11-27T19:15:38.367Z,0
2016-11-27T19:16:38.374Z,0
2016-11-27T19:17:38.388Z,0
2016-11-27T19:18:38.407Z,0
2016-11-27T19:19:38.420Z,0
2016-11-27T19:20:38.433Z,0
2016-11-27T19:21:38.449Z,0
2016-11-27T19:22:38.499Z,0
2016-11-27T19:23:38.471Z,0
2016-11-27T19:24:38.823Z,0
2016-11-27T19:25:38.497Z,0
2016-11-27T19:26:38.511Z,0
2016-11-27T19:27:38.531Z,0
2016-11-27T19:28:38.544Z,0
2016-11-27T19:29:38.558Z,0
2016-11-27T19:30:38.567Z,0
2016-11-27T19:31:38.588Z,0
2016-11-27T19:32:38.599Z,0
2016-11-27T19:33:38.604Z,0
2016-11-27T19:34:38.650Z,0
2016-11-27T19:35:38.634Z,0
2016-11-27T19:36:38.650Z,0
2016-11-27T19:37:38.656Z,0
2016-11-27T19:38:38.683Z,0
2016-11-27T19:39:38.689Z,0
2016-11-27T19:40:38.708Z,0
2016-11-27T19:41:38.714Z,0
2016-11-27T19:42:38.743Z,0
2016-11-27T19:43:38.743Z,0
2016-11-27T19:44:38.759Z,0
2016-11-27T19:45:38.813Z,0
2016-11-27T19:46:38.785Z,0
2016-11-27T19:47:38.804Z,0
2016-11-27T19:48:38.809Z,0
2016-11-27T19:49:39.143Z,0
2016-11-27T19:50:38.846Z,0
2016-11-27T19:51:38.858Z,0
2016-11-27T19:52:38.870Z,0
2016-11-27T19:53:38.883Z,0
2016-11-27T19:54:38.898Z,0
2016-11-27T19:55:38.904Z,0
2016-11-27T19:56:38.931Z,0
2016-11-27T19:57:38.934Z,0
2016-11-27T19:58:38.947Z,0
2016-11-27T19:59:38.977Z,0
2016-11-27T20:00:38.977Z,0
2016-11-27T20:01:38.984Z,0
2016-11-27T20:02:39.005Z,0
2016-11-27T20:03:39.011Z,0
2016-11-27T20:04:39.038Z,0
2016-11-27T20:05:39.041Z,0
2016-11-27T20:06:39.058Z,0
2016-11-27T20:07:39.070Z,0
2016-11-27T20:08:39.078Z,0
2016-11-27T20:09:39.094Z,0
2016-11-27T20:10:39.106Z,0
2016-11-27T20:11:39.124Z,0
2016-11-27T20:12:39.143Z,0
2016-11-27T20:13:39.146Z,0
2016-11-27T20:14:39.162Z,0
2016-11-27T20:15:39.171Z,0
2016-11-27T20:16:39.206Z,0
2016-11-27T20:17:39.206Z,0
2016-11-27T20:18:39.221Z,0
2016-11-27T20:19:39.351Z,0
2016-11-27T20:20:39.353Z,0
2016-11-27T20:21:39.370Z,0
2016-11-27T20:22:39.363Z,0
2016-11-27T20:23:39.381Z,0
2016-11-27T20:24:39.511Z,0
2016-11-27T20:25:39.510Z,0
2016-11-27T20:26:39.718Z,0
2016-11-27T20:27:39.526Z,0
2016-11-27T20:28:39.542Z,0
2016-11-27T20:29:39.546Z,0
2016-11-27T20:30:39.553Z,0
2016-11-27T20:31:39.552Z,0
2016-11-27T20:32:39.559Z,0
2016-11-27T20:33:39.569Z,0
2016-11-27T20:34:39.577Z,0
2016-11-27T20:35:39.586Z,0
2016-11-27T20:36:39.585Z,0
2016-11-27T20:37:39.635Z,0
2016-11-27T20:38:39.644Z,0
2016-11-27T20:39:39.651Z,0
2016-11-27T20:40:39.651Z,0
2016-11-27T20:41:39.659Z,0
2016-11-27T20:42:39.674Z,0
2016-11-27T20:43:39.674Z,0
2016-11-27T20:44:39.684Z,0
2016-11-27T20:45:39.693Z,0
2016-11-27T20:46:39.691Z,0
2016-11-27T20:47:39.702Z,0
2016-11-27T20:48:39.714Z,0
2016-11-27T20:49:39.686Z,0
2016-11-27T20:50:39.677Z,0
2016-11-27T20:51:39.684Z,0
2016-11-27T20:52:39.696Z,0
2016-11-27T20:53:39.708Z,0
2016-11-27T20:54:39.710Z,0
2016-11-27T20:55:39.714Z,0
2016-11-27T20:56:39.731Z,0
2016-11-27T20:57:39.738Z,0
2016-11-27T20:58:39.751Z,0
2016-11-27T20:59:39.767Z,0
2016-11-27T21:00:39.783Z,0
2016-11-27T21:01:39.796Z,0
2016-11-27T21:02:39.803Z,0
2016-11-27T21:03:39.817Z,0
2016-11-27T21:04:39.928Z,0
2016-11-27T21:05:39.846Z,0
2016-11-27T21:06:39.854Z,0
2016-11-27T21:07:39.901Z,0
2016-11-27T21:08:39.889Z,0
2016-11-27T21:09:39.898Z,0
2016-11-27T21:10:40.033Z,0
2016-11-27T21:11:39.918Z,0
2016-11-27T21:12:40.053Z,0
2016-11-27T21:13:39.957Z,0
2016-11-27T21:14:39.978Z,0
2016-11-27T21:15:39.980Z,0
2016-11-27T21:16:39.995Z,0
2016-11-27T21:17:40.003Z,0
2016-11-27T21:18:40.022Z,0
2016-11-27T21:19:40.033Z,0
2016-11-27T21:20:40.050Z,0
2016-11-27T21:21:40.062Z,0
2016-11-27T21:22:40.081Z,0
2016-11-27T21:23:40.156Z,0
2016-11-27T21:24:40.100Z,0
2016-11-27T21:25:40.114Z,0
2016-11-27T21:26:40.129Z,0
2016-11-27T21:27:40.232Z,0
2016-11-27T21:28:40.158Z,0
2016-11-27T21:29:40.171Z,0
2016-11-27T21:30:40.177Z,0
2016-11-27T21:31:40.233Z,0
2016-11-27T21:32:40.211Z,0
2016-11-27T21:33:40.221Z,0
2016-11-27T21:34:40.231Z,0
2016-11-27T21:35:40.248Z,0
2016-11-27T21:36:40.262Z,0
2016-11-27T21:37:40.281Z,0
2016-11-27T21:38:40.293Z,0
2016-11-27T21:39:40.304Z,0
2016-11-27T21:40:40.317Z,0
2016-11-27T21:41:40.329Z,0
2016-11-27T21:42:40.348Z,0
2016-11-27T21:43:40.358Z,0
2016-11-27T21:44:40.370Z,0
2016-11-27T21:45:40.390Z,0
2016-11-27T21:46:40.457Z,0
2016-11-27T21:47:40.405Z,0
2016-11-27T21:48:40.418Z,0
2016-11-27T21:49:40.442Z,0
2016-11-27T21:50:40.449Z,0
2016-11-27T21:51:40.458Z,0
2016-11-27T21:52:40.471Z,0
2016-11-27T21:53:40.503Z,0
2016-11-27T21:54:40.498Z,0
2016-11-27T21:55:40.516Z,0
2016-11-27T21:56:40.518Z,0
2016-11-27T21:57:40.535Z,0
2016-11-27T21:58:40.548Z,4
2016-11-27T21:59:40.561Z,4
2016-11-27T22:00:40.576Z,4
2016-11-27T22:01:40.592Z,4
2016-11-27T22:02:40.596Z,4
2016-11-27T22:03:40.616Z,4
2016-11-27T22:04:40.627Z,4
2016-11-27T22:05:40.636Z,4
2016-11-27T22:06:40.659Z,4
2016-11-27T22:07:40.666Z,4
2016-11-27T22:08:40.681Z,4
2016-11-27T22:09:40.693Z,4
2016-11-27T22:10:40.710Z,4
2016-11-27T22:11:40.715Z,0
2016-11-27T22:12:40.747Z,0
2016-11-27T22:13:40.747Z,0
2016-11-27T22:14:40.758Z,0
2016-11-27T22:15:40.772Z,0
2016-11-27T22:16:40.783Z,0
2016-11-27T22:17:40.795Z,0
2016-11-27T22:18:40.810Z,0
2016-11-27T22:19:40.829Z,0
2016-11-27T22:20:40.838Z,0
2016-11-27T22:21:40.849Z,0
2016-11-27T22:22:40.860Z,0
2016-11-27T22:23:40.875Z,0
2016-11-27T22:24:40.896Z,0
2016-11-27T22:25:40.900Z,0
2016-11-27T22:26:40.914Z,0
2016-11-27T22:27:40.929Z,0
2016-11-27T22:28:41.260Z,0
2016-11-27T22:29:40.953Z,0
2016-11-27T22:30:40.969Z,0
2016-11-27T22:31:40.985Z,0
2016-11-27T22:32:40.999Z,0
2016-11-27T22:33:41.006Z,0
2016-11-27T22:34:41.024Z,0
2016-11-27T22:35:41.047Z,0
2016-11-27T22:36:41.056Z,0
2016-11-27T22:37:41.056Z,0
2016-11-27T22:38:41.071Z,0
2016-11-27T22:39:41.100Z,0
2016-11-27T22:40:41.129Z,0
2016-11-27T22:41:41.122Z,0
2016-11-27T22:42:41.133Z,0
2016-11-27T22:43:41.142Z,0
2016-11-27T22:44:41.148Z,0
2016-11-27T22:45:41.166Z,0
2016-11-27T22:46:41.172Z,0
2016-11-27T22:47:41.192Z,0
2016-11-27T22:48:41.214Z,0
2016-11-27T22:49:41.249Z,0
2016-11-27T22:50:41.233Z,0
2016-11-27T22:51:41.236Z,0
2016-11-27T22:52:41.257Z,0
2016-11-27T22:53:41.260Z,0
2016-11-27T22:54:41.285Z,0
2016-11-27T22:55:41.296Z,0
2016-11-27T22:56:41.303Z,0
2016-11-27T22:57:41.323Z,0
2016-11-27T22:58:41.340Z,0
2016-11-27T22:59:41.344Z,0
2016-11-27T23:00:41.357Z,0
2016-11-27T23:01:41.375Z,0
2016-11-27T23:02:41.389Z,0
2016-11-27T23:03:41.403Z,0
2016-11-27T23:04:41.417Z,0
2016-11-27T23:05:41.417Z,0
2016-11-27T23:06:41.437Z,0
2016-11-27T23:07:41.455Z,0
2016-11-27T23:08:41.461Z,0
2016-11-27T23:09:41.474Z,0
2016-11-27T23:10:41.488Z,0
2016-11-27T23:11:41.512Z,0
2016-11-27T23:12:41.549Z,0
2016-11-27T23:13:41.843Z,0
2016-11-27T23:14:41.540Z,0
2016-11-27T23:15:41.549Z,0
2016-11-27T23:16:41.574Z,0
2016-11-27T23:17:41.604Z,0
2016-11-27T23:18:41.601Z,0
2016-11-27T23:19:41.609Z,0
2016-11-27T23:20:41.625Z,0
2016-11-27T23:21:41.662Z,0
2016-11-27T23:22:41.647Z,0
2016-11-27T23:23:41.660Z,0
2016-11-27T23:24:41.666Z,0
2016-11-27T23:25:41.688Z,0
2016-11-27T23:26:41.694Z,0
2016-11-27T23:27:41.715Z,0
2016-11-27T23:28:41.722Z,0
2016-11-27T23:29:41.744Z,0
2016-11-27T23:30:41.745Z,0
2016-11-27T23:31:41.764Z,0
2016-11-27T23:32:41.771Z,0
2016-11-27T23:33:41.811Z,0
2016-11-27T23:34:41.817Z,0
2016-11-27T23:35:41.806Z,0
2016-11-27T23:36:41.828Z,0
2016-11-27T23:37:41.832Z,0
2016-11-27T23:38:41.860Z,0
2016-11-27T23:39:41.862Z,0
2016-11-27T23:40:41.872Z,0
2016-11-27T23:41:41.893Z,0
2016-11-27T23:42:41.907Z,0
2016-11-27T23:43:41.912Z,0
2016-11-27T23:44:41.933Z,0
2016-11-27T23:45:41.943Z,0
2016-11-27T23:46:41.954Z,0
2016-11-27T23:47:42.344Z,0
2016-11-27T23:48:41.975Z,0
2016-11-27T23:49:41.990Z,0
2016-11-27T23:50:42.034Z,0
2016-11-27T23:51:42.018Z,0
2016-11-27T23:52:42.035Z,0
2016-11-27T23:53:42.043Z,0
2016-11-27T23:54:42.058Z,0
2016-11-27T23:55:42.072Z,0
2016-11-27T23:56:42.082Z,0
2016-11-27T23:57:42.098Z,0
2016-11-27T23:58:42.225Z,0
2016-11-27T23:59:42.238Z,0
